sensor_id;sensor_type;location;lat;lon;timestamp;P1;durP1;ratioP1;P2;durP2;ratioP2
75007;SDS011;63554;48.940;12.050;2022-09-16T11:37:22;4.45;;;1.75;;
75007;SDS011;63554;48.940;12.050;2022-09-16T11:45:21;2.33;;;1.33;;
75007;SDS011;63554;48.940;12.050;2022-09-16T11:48:26;3.83;;;1.60;;
75007;SDS011;63554;48.940;12.050;2022-09-16T11:51:24;2.22;;;1.33;;
75007;SDS011;63554;48.940;12.050;2022-09-16T11:54:19;2.53;;;2.22;;
75007;SDS011;63554;48.940;12.050;2022-09-16T11:57:17;3.75;;;2.20;;
75007;SDS011;63554;48.940;12.050;2022-09-16T12:00:03;3.30;;;2.08;;
75007;SDS011;63554;48.940;12.050;2022-09-16T12:02:51;3.33;;;1.92;;
75007;SDS011;63554;48.940;12.050;2022-09-16T12:05:38;3.00;;;2.30;;
75007;SDS011;63554;48.940;12.050;2022-09-16T12:08:29;3.72;;;2.20;;
75007;SDS011;63554;48.940;12.050;2022-09-16T12:11:19;3.08;;;1.83;;
75007;SDS011;63554;48.940;12.050;2022-09-16T12:14:08;3.58;;;1.90;;
75007;SDS011;63554;48.940;12.050;2022-09-16T12:16:53;4.10;;;1.92;;
75007;SDS011;63554;48.940;12.050;2022-09-16T12:19:41;2.47;;;1.98;;
75007;SDS011;63554;48.940;12.050;2022-09-16T12:22:28;2.60;;;1.83;;
75007;SDS011;63554;48.940;12.050;2022-09-16T12:25:21;2.70;;;1.90;;
75007;SDS011;63554;48.940;12.050;2022-09-16T12:28:11;2.22;;;1.70;;
75007;SDS011;63554;48.940;12.050;2022-09-16T12:30:59;3.05;;;1.98;;
75007;SDS011;63554;48.940;12.050;2022-09-16T12:33:48;3.17;;;1.80;;
75007;SDS011;63554;48.940;12.050;2022-09-16T12:36:36;3.45;;;1.52;;
75007;SDS011;63554;48.940;12.050;2022-09-16T12:39:20;2.53;;;1.63;;
75007;SDS011;63554;48.940;12.050;2022-09-16T12:42:10;3.13;;;2.00;;
75007;SDS011;63554;48.940;12.050;2022-09-16T12:48:39;2.72;;;1.65;;
75007;SDS011;63554;48.940;12.050;2022-09-16T12:51:52;2.60;;;2.10;;
75007;SDS011;63554;48.940;12.050;2022-09-16T12:54:59;3.65;;;2.00;;
75007;SDS011;63554;48.940;12.050;2022-09-16T12:58:25;3.50;;;1.70;;
75007;SDS011;63554;48.940;12.050;2022-09-16T13:01:20;3.47;;;1.42;;
75007;SDS011;63554;48.940;12.050;2022-09-16T13:04:12;2.60;;;1.50;;
75007;SDS011;63554;48.940;12.050;2022-09-16T13:06:57;4.75;;;2.00;;
75007;SDS011;63554;48.940;12.050;2022-09-16T13:09:41;2.33;;;1.73;;
75007;SDS011;63554;48.940;12.050;2022-09-16T13:12:26;3.80;;;1.70;;
75007;SDS011;63554;48.940;12.050;2022-09-16T13:15:20;3.20;;;1.85;;
75007;SDS011;63554;48.940;12.050;2022-09-16T13:18:20;2.63;;;1.70;;
75007;SDS011;63554;48.940;12.050;2022-09-16T13:21:06;3.90;;;1.85;;
75007;SDS011;63554;48.940;12.050;2022-09-16T13:24:09;3.00;;;2.03;;
75007;SDS011;63554;48.940;12.050;2022-09-16T13:27:01;5.10;;;2.13;;
75007;SDS011;63554;48.940;12.050;2022-09-16T13:33:26;4.35;;;2.03;;
75007;SDS011;63554;48.940;12.050;2022-09-16T13:39:14;7.57;;;3.33;;
75007;SDS011;63554;48.940;12.050;2022-09-16T13:42:09;3.33;;;2.10;;
75007;SDS011;63554;48.940;12.050;2022-09-16T13:44:51;3.80;;;2.53;;
75007;SDS011;63554;48.940;12.050;2022-09-16T13:47:35;5.45;;;2.75;;
75007;SDS011;63554;48.940;12.050;2022-09-16T13:50:19;4.43;;;2.55;;
75007;SDS011;63554;48.940;12.050;2022-09-16T13:53:07;5.05;;;2.53;;
75007;SDS011;63554;48.940;12.050;2022-09-16T13:55:51;2.92;;;1.98;;
75007;SDS011;63554;48.940;12.050;2022-09-16T13:58:36;3.95;;;2.17;;
75007;SDS011;63554;48.940;12.050;2022-09-16T14:01:19;5.47;;;2.08;;
75007;SDS011;63554;48.940;12.050;2022-09-16T14:06:49;4.32;;;2.40;;
75007;SDS011;63554;48.940;12.050;2022-09-16T14:09:37;6.35;;;2.20;;
75007;SDS011;63554;48.940;12.050;2022-09-16T14:12:26;3.60;;;1.92;;
75007;SDS011;63554;48.940;12.050;2022-09-16T14:15:10;3.25;;;2.22;;
75007;SDS011;63554;48.940;12.050;2022-09-16T14:17:53;3.88;;;2.08;;
75007;SDS011;63554;48.940;12.050;2022-09-16T14:20:36;2.60;;;1.80;;
75007;SDS011;63554;48.940;12.050;2022-09-16T14:23:19;6.40;;;1.90;;
75007;SDS011;63554;48.940;12.050;2022-09-16T14:26:08;4.82;;;2.72;;
75007;SDS011;63554;48.940;12.050;2022-09-16T14:29:00;4.57;;;2.40;;
75007;SDS011;63554;48.940;12.050;2022-09-16T14:31:42;4.13;;;2.28;;
75007;SDS011;63554;48.940;12.050;2022-09-16T14:34:25;2.50;;;2.22;;
75007;SDS011;63554;48.940;12.050;2022-09-16T14:38:11;4.90;;;1.88;;
75007;SDS011;63554;48.940;12.050;2022-09-16T14:41:17;3.97;;;1.85;;
75007;SDS011;63554;48.940;12.050;2022-09-16T14:44:24;2.25;;;1.73;;
75007;SDS011;63554;48.940;12.050;2022-09-16T14:47:31;2.70;;;1.73;;
75007;SDS011;63554;48.940;12.050;2022-09-16T14:50:36;2.63;;;1.70;;
75007;SDS011;63554;48.940;12.050;2022-09-16T14:53:42;2.60;;;1.70;;
75007;SDS011;63554;48.940;12.050;2022-09-16T14:56:56;4.55;;;2.15;;
75007;SDS011;63554;48.940;12.050;2022-09-16T15:00:00;2.60;;;1.67;;
75007;SDS011;63554;48.940;12.050;2022-09-16T15:03:08;3.88;;;1.77;;
75007;SDS011;63554;48.940;12.050;2022-09-16T15:06:16;4.45;;;2.03;;
75007;SDS011;63554;48.940;12.050;2022-09-16T15:09:23;2.55;;;1.88;;
75007;SDS011;63554;48.940;12.050;2022-09-16T15:12:36;3.97;;;2.05;;
75007;SDS011;63554;48.940;12.050;2022-09-16T15:15:44;2.03;;;1.63;;
75007;SDS011;63554;48.940;12.050;2022-09-16T15:18:51;4.00;;;2.45;;
75007;SDS011;63554;48.940;12.050;2022-09-16T15:21:55;3.22;;;1.85;;
75007;SDS011;63554;48.940;12.050;2022-09-16T15:24:59;3.25;;;2.10;;
75007;SDS011;63554;48.940;12.050;2022-09-16T15:31:06;3.67;;;2.70;;
75007;SDS011;63554;48.940;12.050;2022-09-16T15:34:18;3.83;;;1.88;;
75007;SDS011;63554;48.940;12.050;2022-09-16T15:37:28;3.92;;;2.75;;
75007;SDS011;63554;48.940;12.050;2022-09-16T15:40:33;4.05;;;2.03;;
75007;SDS011;63554;48.940;12.050;2022-09-16T15:43:35;2.75;;;1.60;;
75007;SDS011;63554;48.940;12.050;2022-09-16T15:46:43;4.55;;;2.40;;
75007;SDS011;63554;48.940;12.050;2022-09-16T15:49:45;2.58;;;1.75;;
75007;SDS011;63554;48.940;12.050;2022-09-16T15:52:52;3.67;;;2.10;;
75007;SDS011;63554;48.940;12.050;2022-09-16T15:56:01;4.03;;;2.00;;
75007;SDS011;63554;48.940;12.050;2022-09-16T15:59:09;3.42;;;1.83;;
75007;SDS011;63554;48.940;12.050;2022-09-16T16:02:22;3.92;;;2.00;;
75007;SDS011;63554;48.940;12.050;2022-09-16T16:05:30;4.70;;;2.10;;
75007;SDS011;63554;48.940;12.050;2022-09-16T16:08:39;3.80;;;2.10;;
75007;SDS011;63554;48.940;12.050;2022-09-16T16:11:45;3.25;;;2.33;;
75007;SDS011;63554;48.940;12.050;2022-09-16T16:14:47;3.50;;;2.05;;
75007;SDS011;63554;48.940;12.050;2022-09-16T16:17:49;3.78;;;2.50;;
75007;SDS011;63554;48.940;12.050;2022-09-16T16:20:51;2.90;;;1.77;;
75007;SDS011;63554;48.940;12.050;2022-09-16T16:23:53;2.60;;;1.98;;
75007;SDS011;63554;48.940;12.050;2022-09-16T16:26:56;2.55;;;1.60;;
75007;SDS011;63554;48.940;12.050;2022-09-16T16:29:58;3.38;;;1.92;;
75007;SDS011;63554;48.940;12.050;2022-09-16T16:33:00;5.22;;;1.92;;
75007;SDS011;63554;48.940;12.050;2022-09-16T16:36:02;2.10;;;1.40;;
75007;SDS011;63554;48.940;12.050;2022-09-16T16:39:04;3.35;;;2.05;;
75007;SDS011;63554;48.940;12.050;2022-09-16T16:42:08;4.15;;;1.95;;
75007;SDS011;63554;48.940;12.050;2022-09-16T16:45:11;3.45;;;1.67;;
75007;SDS011;63554;48.940;12.050;2022-09-16T16:48:13;3.75;;;1.65;;
75007;SDS011;63554;48.940;12.050;2022-09-16T16:51:15;2.22;;;1.70;;
75007;SDS011;63554;48.940;12.050;2022-09-16T16:54:17;3.42;;;1.90;;
75007;SDS011;63554;48.940;12.050;2022-09-16T16:57:20;4.20;;;1.90;;
75007;SDS011;63554;48.940;12.050;2022-09-16T17:00:22;2.75;;;2.08;;
75007;SDS011;63554;48.940;12.050;2022-09-16T17:03:24;3.90;;;2.20;;
75007;SDS011;63554;48.940;12.050;2022-09-16T17:06:26;4.50;;;2.47;;
75007;SDS011;63554;48.940;12.050;2022-09-16T17:09:28;6.35;;;2.55;;
75007;SDS011;63554;48.940;12.050;2022-09-16T17:12:31;5.88;;;2.90;;
75007;SDS011;63554;48.940;12.050;2022-09-16T17:15:33;4.97;;;3.03;;
75007;SDS011;63554;48.940;12.050;2022-09-16T17:18:35;5.95;;;3.30;;
75007;SDS011;63554;48.940;12.050;2022-09-16T17:21:37;3.83;;;3.15;;
75007;SDS011;63554;48.940;12.050;2022-09-16T17:24:40;5.25;;;2.97;;
75007;SDS011;63554;48.940;12.050;2022-09-16T17:27:43;5.32;;;3.08;;
75007;SDS011;63554;48.940;12.050;2022-09-16T17:30:45;3.53;;;2.85;;
75007;SDS011;63554;48.940;12.050;2022-09-16T17:33:47;4.00;;;2.65;;
75007;SDS011;63554;48.940;12.050;2022-09-16T17:36:48;4.72;;;3.20;;
75007;SDS011;63554;48.940;12.050;2022-09-16T17:39:50;5.35;;;3.83;;
75007;SDS011;63554;48.940;12.050;2022-09-16T17:42:53;4.10;;;3.47;;
75007;SDS011;63554;48.940;12.050;2022-09-16T17:45:55;5.22;;;3.65;;
75007;SDS011;63554;48.940;12.050;2022-09-16T17:48:57;5.47;;;3.70;;
75007;SDS011;63554;48.940;12.050;2022-09-16T17:52:00;7.82;;;3.72;;
75007;SDS011;63554;48.940;12.050;2022-09-16T17:55:02;6.88;;;4.15;;
75007;SDS011;63554;48.940;12.050;2022-09-16T17:58:05;5.18;;;3.63;;
75007;SDS011;63554;48.940;12.050;2022-09-16T18:01:08;7.03;;;3.95;;
75007;SDS011;63554;48.940;12.050;2022-09-16T18:04:11;4.28;;;3.70;;
75007;SDS011;63554;48.940;12.050;2022-09-16T18:07:13;4.85;;;3.65;;
75007;SDS011;63554;48.940;12.050;2022-09-16T18:10:15;3.33;;;2.90;;
75007;SDS011;63554;48.940;12.050;2022-09-16T18:13:18;4.65;;;2.80;;
75007;SDS011;63554;48.940;12.050;2022-09-16T18:16:20;4.13;;;2.90;;
75007;SDS011;63554;48.940;12.050;2022-09-16T18:19:22;4.45;;;3.10;;
75007;SDS011;63554;48.940;12.050;2022-09-16T18:22:24;5.05;;;3.25;;
75007;SDS011;63554;48.940;12.050;2022-09-16T18:25:26;3.80;;;2.40;;
75007;SDS011;63554;48.940;12.050;2022-09-16T18:28:29;4.35;;;2.25;;
75007;SDS011;63554;48.940;12.050;2022-09-16T18:31:31;4.10;;;1.92;;
75007;SDS011;63554;48.940;12.050;2022-09-16T18:34:33;3.13;;;1.92;;
75007;SDS011;63554;48.940;12.050;2022-09-16T18:37:35;3.28;;;2.30;;
75007;SDS011;63554;48.940;12.050;2022-09-16T18:40:37;3.17;;;1.90;;
75007;SDS011;63554;48.940;12.050;2022-09-16T18:43:41;3.92;;;2.25;;
75007;SDS011;63554;48.940;12.050;2022-09-16T18:46:44;3.80;;;3.10;;
75007;SDS011;63554;48.940;12.050;2022-09-16T18:49:46;3.58;;;2.50;;
75007;SDS011;63554;48.940;12.050;2022-09-16T18:52:48;4.18;;;2.60;;
75007;SDS011;63554;48.940;12.050;2022-09-16T18:55:51;3.78;;;2.40;;
75007;SDS011;63554;48.940;12.050;2022-09-16T18:58:56;2.53;;;2.28;;
75007;SDS011;63554;48.940;12.050;2022-09-16T19:02:01;3.75;;;2.53;;
75007;SDS011;63554;48.940;12.050;2022-09-16T19:05:03;3.95;;;2.78;;
75007;SDS011;63554;48.940;12.050;2022-09-16T19:08:05;3.03;;;2.33;;
75007;SDS011;63554;48.940;12.050;2022-09-16T19:11:07;4.28;;;2.63;;
75007;SDS011;63554;48.940;12.050;2022-09-16T19:14:11;3.63;;;2.35;;
75007;SDS011;63554;48.940;12.050;2022-09-16T19:17:14;3.75;;;2.10;;
75007;SDS011;63554;48.940;12.050;2022-09-16T19:20:15;3.78;;;2.03;;
75007;SDS011;63554;48.940;12.050;2022-09-16T19:23:18;2.88;;;2.00;;
75007;SDS011;63554;48.940;12.050;2022-09-16T19:26:19;3.83;;;2.05;;
75007;SDS011;63554;48.940;12.050;2022-09-16T19:29:23;3.17;;;1.90;;
75007;SDS011;63554;48.940;12.050;2022-09-16T19:35:28;3.05;;;1.80;;
75007;SDS011;63554;48.940;12.050;2022-09-16T19:38:30;3.47;;;1.60;;
75007;SDS011;63554;48.940;12.050;2022-09-16T19:41:33;3.15;;;1.45;;
75007;SDS011;63554;48.940;12.050;2022-09-16T19:44:37;2.75;;;1.83;;
75007;SDS011;63554;48.940;12.050;2022-09-16T19:47:39;5.13;;;2.13;;
75007;SDS011;63554;48.940;12.050;2022-09-16T19:50:41;2.40;;;2.20;;
75007;SDS011;63554;48.940;12.050;2022-09-16T19:53:43;3.85;;;2.58;;
75007;SDS011;63554;48.940;12.050;2022-09-16T19:56:47;4.38;;;3.15;;
75007;SDS011;63554;48.940;12.050;2022-09-16T19:59:51;3.88;;;2.60;;
75007;SDS011;63554;48.940;12.050;2022-09-16T20:02:52;2.97;;;2.38;;
75007;SDS011;63554;48.940;12.050;2022-09-16T20:06:00;3.45;;;2.35;;
75007;SDS011;63554;48.940;12.050;2022-09-16T20:09:04;4.25;;;3.22;;
75007;SDS011;63554;48.940;12.050;2022-09-16T20:12:08;4.00;;;2.60;;
75007;SDS011;63554;48.940;12.050;2022-09-16T20:15:11;3.75;;;2.47;;
75007;SDS011;63554;48.940;12.050;2022-09-16T20:18:13;3.45;;;2.67;;
75007;SDS011;63554;48.940;12.050;2022-09-16T20:21:15;4.15;;;2.45;;
75007;SDS011;63554;48.940;12.050;2022-09-16T20:24:18;4.55;;;2.35;;
75007;SDS011;63554;48.940;12.050;2022-09-16T20:27:22;2.30;;;1.70;;
75007;SDS011;63554;48.940;12.050;2022-09-16T20:30:25;3.50;;;2.40;;
75007;SDS011;63554;48.940;12.050;2022-09-16T20:33:27;3.38;;;2.28;;
75007;SDS011;63554;48.940;12.050;2022-09-16T20:36:29;3.30;;;2.13;;
75007;SDS011;63554;48.940;12.050;2022-09-16T20:39:32;3.75;;;1.90;;
75007;SDS011;63554;48.940;12.050;2022-09-16T20:42:34;4.32;;;2.42;;
75007;SDS011;63554;48.940;12.050;2022-09-16T20:45:37;5.63;;;2.30;;
75007;SDS011;63554;48.940;12.050;2022-09-16T20:48:39;3.67;;;2.20;;
75007;SDS011;63554;48.940;12.050;2022-09-16T20:51:42;3.55;;;1.90;;
75007;SDS011;63554;48.940;12.050;2022-09-16T20:54:44;3.47;;;2.28;;
75007;SDS011;63554;48.940;12.050;2022-09-16T20:57:46;4.13;;;2.45;;
75007;SDS011;63554;48.940;12.050;2022-09-16T21:00:50;3.85;;;2.10;;
75007;SDS011;63554;48.940;12.050;2022-09-16T21:03:53;3.13;;;2.17;;
75007;SDS011;63554;48.940;12.050;2022-09-16T21:06:56;2.90;;;2.05;;
75007;SDS011;63554;48.940;12.050;2022-09-16T21:09:58;4.18;;;2.22;;
75007;SDS011;63554;48.940;12.050;2022-09-16T21:13:00;4.95;;;2.60;;
75007;SDS011;63554;48.940;12.050;2022-09-16T21:16:04;3.05;;;2.33;;
75007;SDS011;63554;48.940;12.050;2022-09-16T21:22:09;3.40;;;2.30;;
75007;SDS011;63554;48.940;12.050;2022-09-16T21:25:11;3.40;;;2.50;;
75007;SDS011;63554;48.940;12.050;2022-09-16T21:28:13;5.50;;;2.53;;
75007;SDS011;63554;48.940;12.050;2022-09-16T21:31:16;3.13;;;2.05;;
75007;SDS011;63554;48.940;12.050;2022-09-16T21:34:19;4.15;;;2.08;;
75007;SDS011;63554;48.940;12.050;2022-09-16T21:37:21;2.80;;;1.98;;
75007;SDS011;63554;48.940;12.050;2022-09-16T21:40:22;2.90;;;1.90;;
75007;SDS011;63554;48.940;12.050;2022-09-16T21:43:24;4.13;;;2.13;;
75007;SDS011;63554;48.940;12.050;2022-09-16T21:46:31;3.97;;;2.20;;
75007;SDS011;63554;48.940;12.050;2022-09-16T21:49:40;3.42;;;1.88;;
75007;SDS011;63554;48.940;12.050;2022-09-16T21:52:42;3.15;;;1.83;;
75007;SDS011;63554;48.940;12.050;2022-09-16T21:55:44;3.60;;;2.20;;
75007;SDS011;63554;48.940;12.050;2022-09-16T21:58:46;2.05;;;1.80;;
75007;SDS011;63554;48.940;12.050;2022-09-16T22:01:51;3.50;;;2.05;;
75007;SDS011;63554;48.940;12.050;2022-09-16T22:04:53;4.32;;;1.90;;
75007;SDS011;63554;48.940;12.050;2022-09-16T22:07:54;4.10;;;2.15;;
75007;SDS011;63554;48.940;12.050;2022-09-16T22:10:59;3.45;;;2.55;;
75007;SDS011;63554;48.940;12.050;2022-09-16T22:14:04;4.53;;;2.20;;
75007;SDS011;63554;48.940;12.050;2022-09-16T22:17:08;5.30;;;2.38;;
75007;SDS011;63554;48.940;12.050;2022-09-16T22:23:12;4.00;;;2.30;;
75007;SDS011;63554;48.940;12.050;2022-09-16T22:26:14;3.50;;;2.50;;
75007;SDS011;63554;48.940;12.050;2022-09-16T22:29:17;2.97;;;2.20;;
75007;SDS011;63554;48.940;12.050;2022-09-16T22:32:20;3.60;;;2.22;;
75007;SDS011;63554;48.940;12.050;2022-09-16T22:35:22;3.35;;;2.70;;
75007;SDS011;63554;48.940;12.050;2022-09-16T22:38:24;4.18;;;2.80;;
75007;SDS011;63554;48.940;12.050;2022-09-16T22:41:26;2.80;;;2.30;;
75007;SDS011;63554;48.940;12.050;2022-09-16T22:44:29;3.42;;;2.33;;
75007;SDS011;63554;48.940;12.050;2022-09-16T22:47:33;4.53;;;2.50;;
75007;SDS011;63554;48.940;12.050;2022-09-16T22:50:34;3.95;;;2.50;;
75007;SDS011;63554;48.940;12.050;2022-09-16T22:53:36;4.22;;;2.78;;
75007;SDS011;63554;48.940;12.050;2022-09-16T22:56:38;3.08;;;2.13;;
75007;SDS011;63554;48.940;12.050;2022-09-16T22:59:40;2.30;;;1.92;;
75007;SDS011;63554;48.940;12.050;2022-09-16T23:02:43;3.05;;;1.90;;
75007;SDS011;63554;48.940;12.050;2022-09-16T23:05:52;3.40;;;1.77;;
75007;SDS011;63554;48.940;12.050;2022-09-16T23:08:55;4.13;;;1.73;;
75007;SDS011;63554;48.940;12.050;2022-09-16T23:11:57;3.80;;;1.90;;
75007;SDS011;63554;48.940;12.050;2022-09-16T23:14:59;3.33;;;1.75;;
75007;SDS011;63554;48.940;12.050;2022-09-16T23:18:02;3.42;;;2.00;;
75007;SDS011;63554;48.940;12.050;2022-09-16T23:21:05;2.67;;;1.80;;
75007;SDS011;63554;48.940;12.050;2022-09-16T23:24:10;2.35;;;1.88;;
75007;SDS011;63554;48.940;12.050;2022-09-16T23:27:14;2.35;;;2.08;;
75007;SDS011;63554;48.940;12.050;2022-09-16T23:30:16;2.25;;;1.83;;
75007;SDS011;63554;48.940;12.050;2022-09-16T23:33:19;3.70;;;1.92;;
75007;SDS011;63554;48.940;12.050;2022-09-16T23:36:21;6.03;;;2.05;;
75007;SDS011;63554;48.940;12.050;2022-09-16T23:39:24;2.72;;;2.00;;
75007;SDS011;63554;48.940;12.050;2022-09-16T23:42:26;2.72;;;1.70;;
75007;SDS011;63554;48.940;12.050;2022-09-16T23:45:28;2.30;;;1.70;;
75007;SDS011;63554;48.940;12.050;2022-09-16T23:48:31;4.15;;;1.80;;
75007;SDS011;63554;48.940;12.050;2022-09-16T23:51:34;2.88;;;1.80;;
75007;SDS011;63554;48.940;12.050;2022-09-16T23:54:36;2.08;;;1.63;;
75007;SDS011;63554;48.940;12.050;2022-09-16T23:57:38;2.08;;;1.77;;
